createdAt,value
2018-12-06T00:01:17.876Z,11.37
2018-12-06T00:03:45.795Z,10.80
2018-12-06T00:06:13.446Z,10.80
2018-12-06T00:08:40.974Z,11.13
2018-12-06T00:11:08.494Z,11.63
2018-12-06T00:13:35.895Z,10.83
2018-12-06T00:16:03.463Z,10.40
2018-12-06T00:18:31.099Z,10.30
2018-12-06T00:20:58.743Z,11.63
2018-12-06T00:23:26.416Z,11.23
2018-12-06T00:25:54.009Z,11.40
2018-12-06T00:28:21.608Z,12.37
2018-12-06T00:30:49.273Z,11.27
2018-12-06T00:33:17.326Z,10.87
2018-12-06T00:35:44.652Z,11.67
2018-12-06T00:38:12.253Z,12.10
2018-12-06T00:40:40.243Z,10.50
2018-12-06T00:43:07.914Z,11.50
2018-12-06T00:45:35.600Z,12.60
2018-12-06T00:48:03.333Z,11.97
2018-12-06T00:50:30.674Z,13.37
2018-12-06T00:52:58.152Z,14.37
2018-12-06T00:55:25.673Z,14.73
2018-12-06T00:57:53.336Z,14.57
2018-12-06T01:00:20.957Z,14.83
2018-12-06T01:02:48.586Z,15.20
2018-12-06T01:05:16.401Z,14.03
2018-12-06T01:07:44.095Z,15.30
2018-12-06T01:10:11.924Z,15.17
2018-12-06T01:12:39.591Z,15.20
2018-12-06T01:15:25.631Z,13.90
2018-12-06T01:17:53.504Z,14.93
2018-12-06T01:20:21.252Z,15.90
2018-12-06T01:22:48.977Z,14.40
2018-12-06T01:25:16.452Z,14.93
2018-12-06T01:27:44.214Z,15.83
2018-12-06T01:30:12.039Z,14.40
2018-12-06T01:32:39.728Z,15.00
2018-12-06T01:35:07.315Z,14.90
2018-12-06T01:37:35.936Z,15.57
2018-12-06T01:40:03.861Z,16.77
2018-12-06T01:42:31.212Z,15.90
2018-12-06T01:44:59.149Z,14.50
2018-12-06T01:47:26.578Z,14.60
2018-12-06T01:49:54.432Z,15.47
2018-12-06T01:52:22.056Z,15.67
2018-12-06T01:54:49.860Z,15.77
2018-12-06T01:57:17.580Z,17.13
2018-12-06T01:59:45.220Z,14.47
2018-12-06T02:02:12.943Z,15.03
2018-12-06T02:04:40.586Z,15.37
2018-12-06T02:07:08.267Z,16.87
2018-12-06T02:09:35.962Z,16.30
2018-12-06T02:12:03.660Z,15.90
2018-12-06T02:14:31.384Z,15.80
2018-12-06T02:16:59.046Z,16.77
2018-12-06T02:19:27.386Z,15.83
2018-12-06T02:21:54.952Z,15.53
2018-12-06T02:24:22.402Z,15.70
2018-12-06T02:26:50.062Z,14.57
2018-12-06T02:29:17.446Z,15.37
2018-12-06T02:31:45.076Z,15.73
2018-12-06T02:34:12.793Z,15.73
2018-12-06T02:36:40.400Z,16.57
2018-12-06T02:39:08.324Z,14.43
2018-12-06T02:41:35.696Z,14.10
2018-12-06T02:44:03.521Z,13.90
2018-12-06T02:46:31.028Z,14.47
2018-12-06T02:48:58.682Z,16.10
2018-12-06T02:51:26.555Z,15.07
2018-12-06T02:53:54.256Z,15.30
2018-12-06T02:56:21.724Z,15.17
2018-12-06T02:58:49.326Z,13.83
2018-12-06T03:01:16.956Z,14.47
2018-12-06T03:03:44.529Z,15.90
2018-12-06T03:06:12.186Z,14.70
2018-12-06T03:08:39.910Z,15.60
2018-12-06T03:11:07.238Z,14.97
2018-12-06T03:13:34.917Z,14.20
2018-12-06T03:16:02.266Z,14.47
2018-12-06T03:18:29.850Z,14.47
2018-12-06T03:20:57.344Z,13.57
2018-12-06T03:23:24.912Z,14.10
2018-12-06T03:25:52.614Z,13.80
2018-12-06T03:28:20.250Z,14.57
2018-12-06T03:30:48.122Z,15.27
2018-12-06T03:33:15.842Z,14.47
2018-12-06T03:35:43.427Z,13.80
2018-12-06T03:38:11.017Z,13.27
2018-12-06T03:40:38.494Z,13.53
2018-12-06T03:43:06.091Z,14.17
2018-12-06T03:45:33.657Z,12.27
2018-12-06T03:48:01.381Z,14.57
2018-12-06T03:50:29.079Z,12.97
2018-12-06T03:52:56.461Z,12.93
2018-12-06T03:55:24.067Z,13.57
2018-12-06T03:57:51.596Z,12.70
2018-12-06T04:00:19.066Z,12.80
2018-12-06T04:02:46.639Z,13.87
2018-12-06T04:05:14.454Z,13.43
2018-12-06T04:07:42.049Z,13.73
2018-12-06T04:10:09.610Z,13.43
2018-12-06T04:12:37.413Z,13.60
2018-12-06T04:15:05.513Z,13.00
2018-12-06T04:17:33.175Z,12.67
2018-12-06T04:20:00.920Z,14.27
2018-12-06T04:22:28.589Z,13.60
2018-12-06T04:24:56.171Z,12.50
2018-12-06T04:27:23.793Z,13.13
2018-12-06T04:29:51.469Z,12.77
2018-12-06T04:32:19.050Z,14.50
2018-12-06T04:34:46.488Z,13.43
2018-12-06T04:37:14.353Z,13.50
2018-12-06T04:39:41.682Z,12.57
2018-12-06T04:42:09.281Z,14.13
2018-12-06T04:44:36.805Z,12.50
2018-12-06T04:47:04.477Z,13.03
2018-12-06T04:49:32.261Z,14.00
2018-12-06T04:51:59.977Z,14.03
2018-12-06T04:54:27.604Z,14.83
2018-12-06T04:56:55.317Z,14.70
2018-12-06T04:59:23.062Z,15.17
2018-12-06T05:01:50.768Z,13.90
2018-12-06T05:04:18.620Z,14.60
2018-12-06T05:06:46.237Z,14.67
2018-12-06T05:09:13.725Z,15.03
2018-12-06T05:11:41.369Z,15.00
2018-12-06T05:14:09.148Z,16.70
2018-12-06T05:16:36.559Z,16.03
2018-12-06T05:19:04.181Z,16.17
2018-12-06T05:21:31.521Z,16.70
2018-12-06T05:23:59.329Z,17.57
2018-12-06T05:26:26.725Z,18.77
2018-12-06T05:28:54.404Z,19.20
2018-12-06T05:31:21.910Z,20.20
2018-12-06T05:33:49.988Z,18.70
2018-12-06T05:36:17.894Z,19.67
2018-12-06T05:38:45.560Z,19.37
2018-12-06T05:41:13.307Z,19.80
2018-12-06T05:43:40.782Z,17.70
2018-12-06T05:46:08.403Z,18.90
2018-12-06T05:48:35.912Z,19.60
2018-12-06T05:51:03.628Z,19.47
2018-12-06T05:53:31.152Z,19.87
2018-12-06T05:55:58.901Z,18.90
2018-12-06T05:58:26.477Z,21.10
2018-12-06T06:00:54.117Z,21.37
2018-12-06T06:03:21.544Z,21.80
2018-12-06T06:05:48.956Z,21.80
2018-12-06T06:08:16.392Z,21.50
2018-12-06T06:10:44.012Z,21.97
2018-12-06T06:13:11.531Z,25.20
2018-12-06T06:15:39.200Z,22.90
2018-12-06T06:18:06.736Z,26.67
2018-12-06T06:20:34.228Z,22.53
2018-12-06T06:23:01.769Z,24.70
2018-12-06T06:25:29.491Z,22.83
2018-12-06T06:27:57.230Z,24.33
2018-12-06T06:30:24.745Z,23.17
2018-12-06T06:32:52.374Z,23.90
2018-12-06T06:35:19.999Z,22.80
2018-12-06T06:37:47.678Z,22.97
2018-12-06T06:40:15.301Z,22.10
2018-12-06T06:42:42.960Z,23.00
2018-12-06T06:45:10.399Z,23.20
2018-12-06T06:47:38.016Z,22.10
2018-12-06T06:50:05.800Z,21.20
2018-12-06T06:52:33.456Z,22.83
2018-12-06T06:55:01.046Z,24.00
2018-12-06T06:57:28.642Z,21.33
2018-12-06T06:59:56.215Z,22.37
2018-12-06T07:02:23.960Z,23.57
2018-12-06T07:04:51.536Z,25.87
2018-12-06T07:07:19.178Z,22.53
2018-12-06T07:09:46.806Z,20.30
2018-12-06T07:12:14.545Z,25.00
2018-12-06T07:14:42.126Z,24.20
2018-12-06T07:17:09.825Z,22.43
2018-12-06T07:19:37.414Z,23.57
2018-12-06T07:22:05.035Z,22.70
2018-12-06T07:24:32.620Z,24.87
2018-12-06T07:27:00.037Z,23.97
2018-12-06T07:29:27.602Z,22.50
2018-12-06T07:31:54.993Z,21.80
2018-12-06T07:34:22.528Z,23.60
2018-12-06T07:36:50.504Z,24.93
2018-12-06T07:39:18.254Z,24.00
2018-12-06T07:41:52.677Z,21.33
2018-12-06T07:44:20.691Z,21.80
2018-12-06T07:46:48.159Z,23.00
2018-12-06T07:49:15.756Z,21.70
2018-12-06T07:51:43.369Z,21.17
2018-12-06T07:54:11.155Z,23.00
2018-12-06T07:56:39.059Z,21.33
2018-12-06T07:59:06.763Z,22.20
2018-12-06T08:01:34.545Z,21.57
2018-12-06T08:04:02.148Z,21.70
2018-12-06T08:06:29.869Z,22.80
2018-12-06T08:08:57.519Z,22.40
2018-12-06T08:11:25.083Z,23.30
2018-12-06T08:13:52.607Z,26.47
2018-12-06T08:16:20.195Z,23.60
2018-12-06T08:18:47.559Z,24.23
2018-12-06T08:21:15.301Z,25.30
2018-12-06T08:23:43.040Z,22.23
2018-12-06T08:26:10.692Z,23.27
2018-12-06T08:28:38.347Z,23.30
2018-12-06T08:31:05.919Z,24.23
2018-12-06T08:33:33.415Z,23.60
2018-12-06T08:36:00.933Z,24.00
2018-12-06T08:38:28.766Z,23.90
2018-12-06T08:40:56.357Z,25.33
2018-12-06T08:43:24.313Z,24.00
2018-12-06T08:45:51.896Z,23.83
2018-12-06T08:48:20.133Z,22.90
2018-12-06T08:50:47.544Z,23.27
2018-12-06T08:53:43.884Z,23.40
2018-12-06T08:56:11.635Z,24.77
2018-12-06T08:58:39.245Z,22.90
2018-12-06T09:01:08.508Z,21.73
2018-12-06T09:03:36.735Z,21.60
2018-12-06T09:06:04.304Z,23.30
2018-12-06T09:08:31.876Z,22.57
2018-12-06T09:10:59.300Z,22.40
2018-12-06T09:13:26.937Z,22.10
2018-12-06T09:15:54.664Z,21.10
2018-12-06T09:18:22.302Z,22.60
2018-12-06T09:20:49.664Z,25.17
2018-12-06T09:23:17.409Z,24.90
2018-12-06T09:25:46.353Z,24.27
2018-12-06T09:28:14.331Z,24.67
2018-12-06T09:30:41.915Z,25.30
2018-12-06T09:33:09.477Z,23.63
2018-12-06T09:35:37.056Z,24.50
2018-12-06T09:38:04.589Z,25.00
2018-12-06T09:40:32.348Z,22.13
2018-12-06T09:42:59.977Z,23.10
2018-12-06T09:45:28.477Z,24.20
2018-12-06T09:47:56.392Z,22.90
2018-12-06T09:50:24.036Z,22.33
2018-12-06T09:52:51.391Z,24.20
2018-12-06T09:55:19.114Z,24.30
2018-12-06T09:57:46.573Z,22.70
2018-12-06T10:00:16.151Z,21.90
2018-12-06T10:02:43.723Z,22.30
2018-12-06T10:05:11.665Z,22.93
2018-12-06T10:07:39.431Z,22.40
2018-12-06T10:10:07.307Z,24.50
2018-12-06T10:12:34.897Z,23.47
2018-12-06T10:15:03.022Z,21.97
2018-12-06T10:17:30.728Z,24.13
2018-12-06T10:19:58.244Z,23.60
2018-12-06T10:22:25.944Z,22.70
2018-12-06T10:24:53.880Z,23.37
2018-12-06T10:27:21.542Z,21.73
2018-12-06T10:29:49.104Z,23.87
2018-12-06T10:32:16.756Z,22.70
2018-12-06T10:34:45.428Z,21.40
2018-12-06T10:37:13.636Z,22.27
2018-12-06T10:39:41.032Z,22.67
2018-12-06T10:42:08.994Z,26.30
2018-12-06T10:44:36.540Z,22.93
2018-12-06T10:47:05.180Z,21.83
2018-12-06T10:49:32.859Z,21.30
2018-12-06T10:52:00.540Z,22.77
2018-12-06T10:54:28.132Z,22.53
2018-12-06T10:56:55.966Z,21.80
2018-12-06T10:59:23.576Z,20.73
2018-12-06T11:01:57.075Z,21.60
2018-12-06T11:04:29.164Z,21.60
2018-12-06T11:06:57.068Z,20.77
2018-12-06T11:09:24.801Z,20.40
2018-12-06T11:11:52.404Z,19.73
2018-12-06T11:14:20.016Z,19.60
2018-12-06T11:16:47.643Z,19.80
2018-12-06T11:19:15.326Z,20.03
2018-12-06T11:21:42.808Z,22.20
2018-12-06T11:24:10.496Z,21.10
2018-12-06T11:26:38.015Z,22.80
2018-12-06T11:29:05.813Z,22.97
2018-12-06T11:31:33.505Z,24.37
2018-12-06T11:34:01.051Z,23.30
2018-12-06T11:36:28.680Z,23.53
2018-12-06T11:38:56.325Z,25.73
2018-12-06T11:41:24.049Z,26.07
2018-12-06T11:43:51.738Z,24.33
2018-12-06T11:46:19.467Z,23.47
2018-12-06T11:48:47.040Z,26.63
2018-12-06T11:51:14.576Z,27.13
2018-12-06T11:53:42.189Z,25.60
2018-12-06T11:56:09.816Z,23.13
2018-12-06T11:58:37.403Z,23.30
2018-12-06T12:01:05.144Z,24.00
2018-12-06T12:03:32.524Z,23.13
2018-12-06T12:05:59.938Z,22.93
2018-12-06T12:08:27.310Z,24.10
2018-12-06T12:10:55.013Z,22.90
2018-12-06T12:13:22.401Z,22.23
2018-12-06T12:15:49.985Z,21.33
2018-12-06T12:18:17.686Z,22.27
2018-12-06T12:20:45.081Z,21.67
2018-12-06T12:23:12.825Z,22.27
2018-12-06T12:25:40.431Z,19.90
2018-12-06T12:28:08.249Z,21.60
2018-12-06T12:30:35.905Z,22.30
2018-12-06T12:33:03.587Z,22.23
2018-12-06T12:35:30.975Z,20.97
2018-12-06T12:37:58.473Z,21.20
2018-12-06T12:40:26.037Z,20.87
2018-12-06T12:42:53.703Z,21.20
2018-12-06T12:45:21.381Z,22.40
2018-12-06T12:47:48.960Z,21.83
2018-12-06T12:50:16.393Z,21.60
2018-12-06T12:52:44.032Z,21.37
2018-12-06T12:55:11.388Z,21.00
2018-12-06T12:57:39.031Z,23.60
2018-12-06T13:00:07.171Z,21.50
2018-12-06T13:02:34.873Z,21.53
2018-12-06T13:05:02.797Z,21.93
2018-12-06T13:07:30.657Z,23.10
2018-12-06T13:09:58.281Z,21.57
2018-12-06T13:12:25.937Z,22.30
2018-12-06T13:14:53.547Z,24.17
2018-12-06T13:17:21.257Z,22.00
2018-12-06T13:19:49.017Z,35.50
2018-12-06T13:22:16.677Z,24.77
2018-12-06T13:24:44.329Z,21.40
2018-12-06T13:27:12.053Z,21.73
2018-12-06T13:29:39.639Z,22.20
2018-12-06T13:32:07.186Z,24.33
2018-12-06T13:34:34.860Z,22.30
2018-12-06T13:37:02.285Z,19.57
2018-12-06T13:39:29.865Z,23.10
2018-12-06T13:41:57.589Z,24.17
2018-12-06T13:44:25.391Z,23.60
2018-12-06T13:46:52.989Z,23.70
2018-12-06T13:49:20.759Z,25.20
2018-12-06T13:51:48.385Z,24.13
2018-12-06T13:54:16.093Z,23.83
2018-12-06T13:56:44.047Z,21.80
2018-12-06T13:59:11.644Z,22.87
2018-12-06T14:01:39.221Z,23.53
2018-12-06T14:04:07.138Z,22.80
2018-12-06T14:06:34.743Z,22.27
2018-12-06T14:09:03.101Z,22.73
2018-12-06T14:11:31.210Z,22.53
2018-12-06T14:13:58.664Z,19.57
2018-12-06T14:16:26.271Z,21.20
2018-12-06T14:18:53.710Z,22.30
2018-12-06T14:21:21.206Z,20.80
2018-12-06T14:23:48.673Z,22.73
2018-12-06T14:26:16.335Z,21.33
2018-12-06T14:28:43.971Z,23.33
2018-12-06T14:31:11.644Z,20.87
2018-12-06T14:33:39.632Z,21.97
2018-12-06T14:36:07.257Z,21.47
2018-12-06T14:38:34.895Z,21.27
2018-12-06T14:41:02.553Z,21.03
2018-12-06T14:43:30.360Z,21.13
2018-12-06T14:45:58.322Z,20.33
2018-12-06T14:48:26.347Z,21.73
2018-12-06T14:50:53.847Z,18.93
2018-12-06T14:53:21.528Z,21.43
2018-12-06T14:55:49.119Z,20.50
2018-12-06T14:58:16.716Z,20.00
2018-12-06T15:00:44.082Z,20.03
2018-12-06T15:03:11.628Z,21.40
2018-12-06T15:05:39.081Z,20.10
2018-12-06T15:08:06.716Z,20.17
2018-12-06T15:10:34.221Z,20.47
2018-12-06T15:13:01.842Z,20.80
2018-12-06T15:15:29.534Z,21.03
2018-12-06T15:17:57.309Z,21.60
2018-12-06T15:20:25.038Z,20.83
2018-12-06T15:22:52.725Z,18.77
2018-12-06T15:25:20.616Z,18.60
2018-12-06T15:27:48.681Z,19.20
2018-12-06T15:30:16.240Z,17.67
2018-12-06T15:32:44.062Z,17.40
2018-12-06T15:35:11.930Z,18.50
2018-12-06T15:37:39.495Z,18.10
2018-12-06T15:40:07.688Z,16.83
2018-12-06T15:42:35.183Z,17.33
2018-12-06T15:45:02.967Z,17.27
2018-12-06T15:47:30.715Z,16.07
2018-12-06T15:49:58.412Z,16.93
2018-12-06T15:52:25.911Z,15.47
2018-12-06T15:54:53.662Z,16.47
2018-12-06T15:57:21.171Z,17.03
2018-12-06T15:59:48.780Z,16.90
2018-12-06T16:02:31.633Z,16.10
2018-12-06T16:04:59.262Z,17.63
2018-12-06T16:07:26.842Z,17.53
2018-12-06T16:09:54.705Z,17.30
2018-12-06T16:12:22.517Z,17.50
2018-12-06T16:14:50.365Z,19.03
2018-12-06T16:17:17.889Z,20.70
2018-12-06T16:19:45.720Z,21.97
2018-12-06T16:22:13.535Z,19.00
2018-12-06T16:24:41.346Z,20.20
2018-12-06T16:27:09.001Z,18.77
2018-12-06T16:29:36.629Z,18.17
2018-12-06T16:32:04.368Z,17.87
2018-12-06T16:34:31.873Z,15.60
2018-12-06T16:36:59.467Z,14.97
2018-12-06T16:39:26.874Z,14.27
2018-12-06T16:41:54.765Z,15.00
2018-12-06T16:44:22.548Z,14.60
2018-12-06T16:46:50.251Z,15.20
2018-12-06T16:49:17.999Z,13.07
2018-12-06T16:51:45.586Z,13.53
2018-12-06T16:54:13.307Z,13.90
2018-12-06T16:56:43.688Z,13.67
2018-12-06T16:59:11.442Z,12.80
2018-12-06T17:01:39.074Z,14.20
2018-12-06T17:04:06.885Z,13.07
2018-12-06T17:06:34.758Z,12.90
2018-12-06T17:09:04.738Z,12.80
2018-12-06T17:11:32.564Z,12.50
2018-12-06T17:14:01.581Z,13.33
2018-12-06T17:16:29.088Z,13.10
2018-12-06T17:18:56.841Z,13.77
2018-12-06T17:21:24.348Z,13.17
2018-12-06T17:23:52.412Z,12.80
2018-12-06T17:26:20.039Z,11.93
2018-12-06T17:28:47.799Z,12.83
2018-12-06T17:31:15.624Z,12.77
2018-12-06T17:33:43.385Z,12.77
2018-12-06T17:36:11.232Z,12.23
2018-12-06T17:38:39.029Z,11.83
2018-12-06T17:41:06.379Z,12.40
2018-12-06T17:43:33.979Z,11.73
2018-12-06T17:46:01.736Z,11.70
2018-12-06T17:48:29.559Z,12.00
2018-12-06T17:50:57.190Z,10.90
2018-12-06T17:53:25.067Z,11.50
2018-12-06T17:55:54.503Z,11.50
2018-12-06T17:58:22.181Z,13.03
2018-12-06T18:00:50.153Z,11.30
2018-12-06T18:03:17.641Z,12.40
2018-12-06T18:05:45.242Z,11.60
2018-12-06T18:08:12.746Z,12.20
2018-12-06T18:10:40.719Z,13.67
2018-12-06T18:13:08.342Z,12.30
2018-12-06T18:15:36.468Z,13.13
2018-12-06T18:18:04.132Z,11.00
2018-12-06T18:20:31.576Z,11.50
2018-12-06T18:22:59.456Z,11.53
2018-12-06T18:25:27.125Z,10.83
2018-12-06T18:27:55.007Z,10.50
2018-12-06T18:30:22.768Z,10.30
2018-12-06T18:32:50.409Z,10.60
2018-12-06T18:35:18.372Z,11.00
2018-12-06T18:37:46.224Z,10.10
2018-12-06T18:40:13.920Z,10.90
2018-12-06T18:42:41.583Z,8.47
2018-12-06T18:45:09.122Z,9.10
2018-12-06T18:47:36.969Z,10.97
2018-12-06T18:50:04.745Z,9.80
2018-12-06T18:52:32.529Z,10.13
2018-12-06T18:55:00.139Z,10.40
2018-12-06T18:57:27.882Z,10.40
2018-12-06T18:59:55.562Z,10.33
2018-12-06T19:02:23.109Z,9.90
2018-12-06T19:04:50.842Z,11.63
2018-12-06T19:07:18.731Z,10.70
2018-12-06T19:09:46.258Z,10.53
2018-12-06T19:12:13.908Z,10.47
2018-12-06T19:14:41.748Z,10.00
2018-12-06T19:17:09.366Z,10.10
2018-12-06T19:19:36.978Z,10.70
2018-12-06T19:22:04.818Z,9.50
2018-12-06T19:24:32.784Z,9.70
2018-12-06T19:27:00.576Z,10.37
2018-12-06T19:29:28.272Z,10.00
2018-12-06T19:31:56.455Z,9.53
2018-12-06T19:34:24.253Z,10.70
2018-12-06T19:36:53.055Z,9.53
2018-12-06T19:39:21.436Z,9.37
2018-12-06T19:41:49.340Z,10.03
2018-12-06T19:44:17.008Z,9.67
2018-12-06T19:46:45.143Z,9.20
2018-12-06T19:49:12.992Z,8.80
2018-12-06T19:51:41.039Z,8.80
2018-12-06T19:54:08.724Z,8.73
2018-12-06T19:56:37.296Z,8.10
2018-12-06T19:59:06.824Z,7.83
2018-12-06T20:01:36.389Z,8.67
2018-12-06T20:04:04.102Z,8.10
2018-12-06T20:06:31.934Z,9.17
2018-12-06T20:08:59.519Z,9.33
2018-12-06T20:11:27.280Z,8.10
2018-12-06T20:13:55.256Z,9.10
2018-12-06T20:16:22.934Z,8.77
2018-12-06T20:18:50.636Z,8.40
2018-12-06T20:21:18.355Z,8.57
2018-12-06T20:23:45.788Z,8.60
2018-12-06T20:26:14.440Z,9.97
2018-12-06T20:28:42.104Z,8.87
2018-12-06T20:31:09.799Z,7.07
2018-12-06T20:33:37.385Z,8.03
2018-12-06T20:36:04.943Z,8.20
2018-12-06T20:38:32.654Z,8.30
2018-12-06T20:41:00.383Z,7.30
2018-12-06T20:43:28.201Z,7.40
2018-12-06T20:45:55.981Z,7.17
2018-12-06T20:48:23.590Z,7.13
2018-12-06T20:50:51.194Z,7.00
2018-12-06T20:53:18.907Z,6.90
2018-12-06T20:55:46.680Z,6.83
2018-12-06T20:58:15.187Z,7.03
2018-12-06T21:00:43.033Z,6.80
2018-12-06T21:03:10.831Z,6.90
2018-12-06T21:05:38.281Z,6.83
2018-12-06T21:08:06.009Z,7.73
2018-12-06T21:10:33.823Z,7.70
2018-12-06T21:13:01.533Z,7.43
2018-12-06T21:15:29.197Z,7.57
2018-12-06T21:17:56.725Z,7.67
2018-12-06T21:20:24.416Z,8.43
2018-12-06T21:22:52.179Z,8.63
2018-12-06T21:25:19.807Z,8.20
2018-12-06T21:27:47.559Z,7.60
2018-12-06T21:30:15.135Z,7.97
2018-12-06T21:32:42.825Z,8.03
2018-12-06T21:35:10.512Z,8.77
2018-12-06T21:37:38.458Z,8.67
2018-12-06T21:40:06.532Z,9.10
2018-12-06T21:42:34.046Z,7.00
2018-12-06T21:45:01.587Z,7.40
2018-12-06T21:47:29.158Z,6.20
2018-12-06T21:49:56.796Z,7.07
2018-12-06T21:52:24.652Z,6.37
2018-12-06T21:54:52.190Z,6.47
2018-12-06T21:57:19.970Z,7.83
2018-12-06T21:59:47.770Z,7.50
2018-12-06T22:02:22.863Z,7.13
2018-12-06T22:04:50.634Z,6.67
2018-12-06T22:07:18.367Z,7.30
2018-12-06T22:09:46.179Z,5.57
2018-12-06T22:12:13.810Z,5.10
2018-12-06T22:14:41.385Z,6.20
2018-12-06T22:17:09.095Z,6.33
2018-12-06T22:19:36.811Z,5.70
2018-12-06T22:22:04.548Z,5.77
2018-12-06T22:24:32.183Z,5.43
2018-12-06T22:26:59.776Z,5.40
2018-12-06T22:29:27.228Z,5.27
2018-12-06T22:31:55.054Z,5.40
2018-12-06T22:34:22.436Z,7.10
2018-12-06T22:36:50.064Z,5.57
2018-12-06T22:39:17.564Z,5.40
2018-12-06T22:41:45.252Z,5.40
2018-12-06T22:44:12.960Z,4.40
2018-12-06T22:46:40.702Z,5.47
2018-12-06T22:49:08.428Z,4.90
2018-12-06T22:51:36.154Z,4.60
2018-12-06T22:54:04.336Z,5.03
2018-12-06T22:56:32.152Z,4.47
2018-12-06T22:59:00.365Z,4.60
2018-12-06T23:01:33.585Z,5.03
2018-12-06T23:04:01.425Z,4.67
2018-12-06T23:06:29.101Z,5.20
2018-12-06T23:08:56.561Z,5.10
2018-12-06T23:11:24.496Z,5.17
2018-12-06T23:13:54.215Z,5.70
2018-12-06T23:16:22.836Z,5.50
2018-12-06T23:18:52.201Z,5.17
2018-12-06T23:21:21.636Z,5.70
2018-12-06T23:23:51.094Z,4.80
2018-12-06T23:26:18.840Z,5.80
2018-12-06T23:28:46.531Z,4.73
2018-12-06T23:31:14.186Z,4.77
2018-12-06T23:33:41.760Z,5.37
2018-12-06T23:36:09.366Z,4.40
2018-12-06T23:38:36.956Z,4.70
2018-12-06T23:41:04.496Z,5.30
2018-12-06T23:43:32.162Z,4.83
2018-12-06T23:45:59.752Z,4.90
2018-12-06T23:48:27.363Z,4.50
2018-12-06T23:51:04.823Z,5.40
2018-12-06T23:53:32.438Z,4.77
2018-12-06T23:56:00.101Z,4.40
2018-12-06T23:58:27.848Z,4.47
